Аэропорт: Магнитогорск. Магнитогорск

ICAO: USCM

METAR:
2021-04-21 19:30:00
USCM 211930Z 15004MPS 9999 NSC 04/M08 Q1031 R18/090060 NOSIG RMK QFE735
METAR:
Информация по данной станции не доступна